createdAt,value
2023-04-18T00:00:39.917Z,14.65
2023-04-18T00:01:39.987Z,14.63
2023-04-18T00:02:40.203Z,14.63
2023-04-18T00:03:40.204Z,14.62
2023-04-18T00:04:40.138Z,14.62
2023-04-18T00:05:40.121Z,14.61
2023-04-18T00:06:40.159Z,14.63
2023-04-18T00:07:40.228Z,14.62
2023-04-18T00:08:40.215Z,14.63
2023-04-18T00:09:40.324Z,14.63
2023-04-18T00:10:40.308Z,14.62
2023-04-18T00:11:40.353Z,14.61
2023-04-18T00:12:40.403Z,14.62
2023-04-18T00:13:40.406Z,14.61
2023-04-18T00:14:40.426Z,14.61
2023-04-18T00:15:40.490Z,14.59
2023-04-18T00:16:40.548Z,14.59
2023-04-18T00:17:40.576Z,14.58
2023-04-18T00:18:40.583Z,14.61
2023-04-18T00:19:40.597Z,14.59
2023-04-18T00:20:40.622Z,14.59
2023-04-18T00:21:40.642Z,14.61
2023-04-18T00:22:40.673Z,14.61
2023-04-18T00:23:40.734Z,14.62
2023-04-18T00:24:40.826Z,14.62
2023-04-18T00:25:40.841Z,14.58
2023-04-18T00:26:40.831Z,14.58
2023-04-18T00:27:40.825Z,14.55
2023-04-18T00:28:40.824Z,14.53
2023-04-18T00:29:40.844Z,14.56
2023-04-18T00:30:40.918Z,14.51
2023-04-18T00:31:40.878Z,14.55
2023-04-18T00:32:40.927Z,14.53
2023-04-18T00:33:40.861Z,14.56
2023-04-18T00:34:40.866Z,14.53
2023-04-18T00:35:40.910Z,14.53
2023-04-18T00:36:40.870Z,14.55
2023-04-18T00:37:40.891Z,14.53
2023-04-18T00:38:40.902Z,14.49
2023-04-18T00:39:40.919Z,14.49
2023-04-18T00:40:40.917Z,14.48
2023-04-18T00:41:40.936Z,14.46
2023-04-18T00:42:40.959Z,14.48
2023-04-18T00:43:40.935Z,14.46
2023-04-18T00:44:40.950Z,14.45
2023-04-18T00:45:40.939Z,14.48
2023-04-18T00:46:41.121Z,14.48
2023-04-18T00:47:41.037Z,14.45
2023-04-18T00:48:41.056Z,14.45
2023-04-18T00:49:41.156Z,14.48
2023-04-18T00:50:41.204Z,14.46
2023-04-18T00:51:41.251Z,14.46
2023-04-18T00:52:41.301Z,14.46
2023-04-18T00:53:41.318Z,14.46
2023-04-18T00:54:41.315Z,14.44
2023-04-18T00:55:41.345Z,14.42
2023-04-18T00:56:41.341Z,14.42
2023-04-18T00:57:41.339Z,14.42
2023-04-18T00:58:41.345Z,14.39
2023-04-18T00:59:41.360Z,14.42
2023-04-18T01:00:41.400Z,14.38
2023-04-18T01:01:41.422Z,14.41
2023-04-18T01:02:41.479Z,14.44
2023-04-18T01:03:41.569Z,14.41
2023-04-18T01:04:41.471Z,14.41
2023-04-18T01:05:41.485Z,14.41
2023-04-18T01:06:41.485Z,14.39
2023-04-18T01:07:41.546Z,14.39
2023-04-18T01:08:41.458Z,14.36
2023-04-18T01:09:41.481Z,14.39
2023-04-18T01:10:41.461Z,14.42
2023-04-18T01:11:41.465Z,14.39
2023-04-18T01:12:41.509Z,14.39
2023-04-18T01:13:41.489Z,14.39
2023-04-18T01:14:41.490Z,14.39
2023-04-18T01:15:41.544Z,14.39
2023-04-18T01:16:41.506Z,14.39
2023-04-18T01:17:41.539Z,14.39
2023-04-18T01:18:41.516Z,14.39
2023-04-18T01:19:41.535Z,14.39
2023-04-18T01:20:41.536Z,14.41
2023-04-18T01:21:41.523Z,14.41
2023-04-18T01:22:41.541Z,14.44
2023-04-18T01:23:41.536Z,14.42
2023-04-18T01:24:41.564Z,14.42
2023-04-18T01:25:41.543Z,14.45
2023-04-18T01:26:41.562Z,14.46
2023-04-18T01:27:41.571Z,14.44
2023-04-18T01:28:41.557Z,14.44
2023-04-18T01:29:41.559Z,14.42
2023-04-18T01:30:41.592Z,14.44
2023-04-18T01:31:41.643Z,14.44
2023-04-18T01:32:41.630Z,14.45
2023-04-18T01:33:41.606Z,14.44
2023-04-18T01:34:41.607Z,14.48
2023-04-18T01:35:41.620Z,14.45
2023-04-18T01:36:41.627Z,14.46
2023-04-18T01:37:41.621Z,14.45
2023-04-18T01:38:41.628Z,14.48
2023-04-18T01:39:41.654Z,14.46
2023-04-18T01:40:41.649Z,14.49
2023-04-18T01:41:41.656Z,14.46
2023-04-18T01:42:41.662Z,14.44
2023-04-18T01:43:41.648Z,14.44
2023-04-18T01:44:41.670Z,14.41
2023-04-18T01:45:41.668Z,14.44
2023-04-18T01:46:41.769Z,14.41
2023-04-18T01:47:41.701Z,14.41
2023-04-18T01:48:41.689Z,14.42
2023-04-18T01:49:41.689Z,14.41
2023-04-18T01:50:41.731Z,14.39
2023-04-18T01:51:41.703Z,14.44
2023-04-18T01:52:41.722Z,14.42
2023-04-18T01:53:41.722Z,14.46
2023-04-18T01:54:41.712Z,14.46
2023-04-18T01:55:41.728Z,14.46
2023-04-18T01:56:41.714Z,14.46
2023-04-18T01:57:41.730Z,14.48
2023-04-18T01:58:41.729Z,14.48
2023-04-18T01:59:41.724Z,14.48
2023-04-18T02:00:41.818Z,14.46
2023-04-18T02:01:41.756Z,14.51
2023-04-18T02:02:41.924Z,14.49
2023-04-18T02:03:41.911Z,14.48
2023-04-18T02:04:41.737Z,14.49
2023-04-18T02:05:41.772Z,14.51
2023-04-18T02:06:41.779Z,14.48
2023-04-18T02:07:41.758Z,14.45
2023-04-18T02:08:41.763Z,14.44
2023-04-18T02:09:41.760Z,14.42
2023-04-18T02:10:41.790Z,14.44
2023-04-18T02:11:41.779Z,14.45
2023-04-18T02:12:41.760Z,14.44
2023-04-18T02:13:41.787Z,14.46
2023-04-18T02:14:41.765Z,14.44
2023-04-18T02:15:41.796Z,14.42
2023-04-18T02:16:41.853Z,14.46
2023-04-18T02:17:42.138Z,14.42
2023-04-18T02:18:41.811Z,14.46
2023-04-18T02:19:41.795Z,14.49
2023-04-18T02:20:41.803Z,14.49
2023-04-18T02:21:41.813Z,14.46
2023-04-18T02:22:41.819Z,14.49
2023-04-18T02:23:41.801Z,14.48
2023-04-18T02:24:41.835Z,14.46
2023-04-18T02:25:41.846Z,14.45
2023-04-18T02:26:41.849Z,14.41
2023-04-18T02:27:41.889Z,14.41
2023-04-18T02:28:41.889Z,14.44
2023-04-18T02:29:41.904Z,14.44
2023-04-18T02:30:41.914Z,14.42
2023-04-18T02:31:41.954Z,14.41
2023-04-18T02:32:41.998Z,14.42
2023-04-18T02:33:41.937Z,14.42
2023-04-18T02:34:41.960Z,14.41
2023-04-18T02:35:41.956Z,14.41
2023-04-18T02:36:41.964Z,14.38
2023-04-18T02:37:41.971Z,14.42
2023-04-18T02:38:41.979Z,14.41
2023-04-18T02:39:41.989Z,14.44
2023-04-18T02:40:42.004Z,14.44
2023-04-18T02:41:42.004Z,14.45
2023-04-18T02:42:42.006Z,14.45
2023-04-18T02:43:42.017Z,14.44
2023-04-18T02:44:42.032Z,14.46
2023-04-18T02:45:42.107Z,14.44
2023-04-18T02:46:42.070Z,14.44
2023-04-18T02:47:53.554Z,14.44
2023-04-18T02:48:43.047Z,14.42
2023-04-18T02:49:42.059Z,14.38
2023-04-18T02:50:42.025Z,14.39
2023-04-18T02:51:42.019Z,14.38
2023-04-18T02:52:42.014Z,14.36
2023-04-18T02:53:42.004Z,14.35
2023-04-18T02:54:42.015Z,14.35
2023-04-18T02:55:41.999Z,14.36
2023-04-18T02:56:41.993Z,14.38
2023-04-18T02:57:41.987Z,14.39
2023-04-18T02:58:41.967Z,14.38
2023-04-18T02:59:41.969Z,14.38
2023-04-18T03:00:41.969Z,14.36
2023-04-18T03:01:42.000Z,14.36
2023-04-18T03:02:42.070Z,14.38
2023-04-18T03:03:41.932Z,14.38
2023-04-18T03:04:41.982Z,14.36
2023-04-18T03:05:41.913Z,14.36
2023-04-18T03:06:41.916Z,14.36
2023-04-18T03:07:41.900Z,14.36
2023-04-18T03:08:41.903Z,14.36
2023-04-18T03:09:41.893Z,14.36
2023-04-18T03:10:41.877Z,14.35
2023-04-18T03:11:41.873Z,14.36
2023-04-18T03:12:41.876Z,14.35
2023-04-18T03:13:41.858Z,14.36
2023-04-18T03:14:41.854Z,14.36
2023-04-18T03:15:41.906Z,14.36
2023-04-18T03:16:41.879Z,14.35
2023-04-18T03:17:41.940Z,14.38
2023-04-18T03:18:41.913Z,14.36
2023-04-18T03:19:41.948Z,14.36
2023-04-18T03:20:41.942Z,14.39
2023-04-18T03:21:41.943Z,14.39
2023-04-18T03:22:41.965Z,14.38
2023-04-18T03:23:41.974Z,14.39
2023-04-18T03:24:41.974Z,14.39
2023-04-18T03:25:41.997Z,14.38
2023-04-18T03:26:41.997Z,14.36
2023-04-18T03:27:42.115Z,14.38
2023-04-18T03:28:42.122Z,14.36
2023-04-18T03:29:42.039Z,14.39
2023-04-18T03:30:42.057Z,14.41
2023-04-18T03:31:42.142Z,14.36
2023-04-18T03:32:42.182Z,14.39
2023-04-18T03:33:42.067Z,14.39
2023-04-18T03:34:42.083Z,14.38
2023-04-18T03:35:42.091Z,14.39
2023-04-18T03:36:42.130Z,14.38
2023-04-18T03:37:42.136Z,14.38
2023-04-18T03:38:42.139Z,14.41
2023-04-18T03:39:42.161Z,14.39
2023-04-18T03:40:42.156Z,14.42
2023-04-18T03:41:42.183Z,14.39
2023-04-18T03:42:42.148Z,14.41
2023-04-18T03:43:42.169Z,14.44
2023-04-18T03:44:42.164Z,14.42
2023-04-18T03:45:42.180Z,14.41
2023-04-18T03:46:42.275Z,14.41
2023-04-18T03:47:42.241Z,14.38
2023-04-18T03:48:42.237Z,14.38
2023-04-18T03:49:42.271Z,14.38
2023-04-18T03:50:42.283Z,14.39
2023-04-18T03:51:42.288Z,14.36
2023-04-18T03:52:42.318Z,14.39
2023-04-18T03:53:42.323Z,14.41
2023-04-18T03:54:42.356Z,14.38
2023-04-18T03:55:42.368Z,14.38
2023-04-18T03:56:42.394Z,14.32
2023-04-18T03:57:42.430Z,14.34
2023-04-18T03:58:42.445Z,14.34
2023-04-18T03:59:42.461Z,14.32
2023-04-18T04:00:42.555Z,14.32
2023-04-18T04:01:42.544Z,14.34
2023-04-18T04:02:42.626Z,14.32
2023-04-18T04:03:42.688Z,14.29
2023-04-18T04:04:42.595Z,14.32
2023-04-18T04:05:42.564Z,14.32
2023-04-18T04:06:42.582Z,14.36
2023-04-18T04:07:42.605Z,14.41
2023-04-18T04:08:42.619Z,14.38
2023-04-18T04:09:42.632Z,14.39
2023-04-18T04:10:42.612Z,14.39
2023-04-18T04:11:42.630Z,14.42
2023-04-18T04:12:42.641Z,14.39
2023-04-18T04:13:42.652Z,14.36
2023-04-18T04:14:42.666Z,14.41
2023-04-18T04:15:42.683Z,14.42
2023-04-18T04:16:42.724Z,14.42
2023-04-18T04:17:42.731Z,14.39
2023-04-18T04:18:42.746Z,14.45
2023-04-18T04:19:42.722Z,14.42
2023-04-18T04:20:42.724Z,14.42
2023-04-18T04:21:42.748Z,14.39
2023-04-18T04:22:42.742Z,14.41
2023-04-18T04:23:42.819Z,14.41
2023-04-18T04:24:42.787Z,14.38
2023-04-18T04:25:42.787Z,14.39
2023-04-18T04:26:42.834Z,14.44
2023-04-18T04:27:42.816Z,14.41
2023-04-18T04:28:42.842Z,14.42
2023-04-18T04:29:42.866Z,14.41
2023-04-18T04:30:42.885Z,14.38
2023-04-18T04:31:42.945Z,14.39
2023-04-18T04:32:43.064Z,14.36
2023-04-18T04:33:42.960Z,14.36
2023-04-18T04:34:42.991Z,14.34
2023-04-18T04:35:43.025Z,14.32
2023-04-18T04:36:43.071Z,14.32
2023-04-18T04:37:43.063Z,14.25
2023-04-18T04:38:43.095Z,14.28
2023-04-18T04:39:43.126Z,14.28
2023-04-18T04:40:43.146Z,14.28
2023-04-18T04:41:43.164Z,14.27
2023-04-18T04:42:43.210Z,14.25
2023-04-18T04:43:43.233Z,14.28
2023-04-18T04:44:43.316Z,14.25
2023-04-18T04:45:43.338Z,14.27
2023-04-18T04:46:43.301Z,14.27
2023-04-18T04:47:43.366Z,14.27
2023-04-18T04:48:43.371Z,14.27
2023-04-18T04:49:43.400Z,14.29
2023-04-18T04:50:43.408Z,14.28
2023-04-18T04:51:43.432Z,14.29
2023-04-18T04:52:43.461Z,14.28
2023-04-18T04:53:43.476Z,14.28
2023-04-18T04:54:43.511Z,14.29
2023-04-18T04:55:43.539Z,14.25
2023-04-18T04:56:43.569Z,14.28
2023-04-18T04:57:43.608Z,14.31
2023-04-18T04:58:43.610Z,14.29
2023-04-18T04:59:43.652Z,14.35
2023-04-18T05:00:43.637Z,14.32
2023-04-18T05:01:43.744Z,14.32
2023-04-18T05:02:43.760Z,14.35
2023-04-18T05:03:43.988Z,14.36
2023-04-18T05:04:43.786Z,14.39
2023-04-18T05:05:43.692Z,14.41
2023-04-18T05:06:43.705Z,14.45
2023-04-18T05:07:43.711Z,14.46
2023-04-18T05:08:43.701Z,14.49
2023-04-18T05:09:43.747Z,14.52
2023-04-18T05:10:43.712Z,14.52
2023-04-18T05:11:43.699Z,14.55
2023-04-18T05:12:43.731Z,14.53
2023-04-18T05:13:43.706Z,14.52
2023-04-18T05:14:43.701Z,14.56
2023-04-18T05:15:43.697Z,14.61
2023-04-18T05:16:43.744Z,14.63
2023-04-18T05:17:43.815Z,14.66
2023-04-18T05:18:43.830Z,14.71
2023-04-18T05:19:43.885Z,14.73
2023-04-18T05:20:43.958Z,14.76
2023-04-18T05:21:44.010Z,14.80
2023-04-18T05:22:44.089Z,14.82
2023-04-18T05:23:44.156Z,14.84
2023-04-18T05:24:44.187Z,14.87
2023-04-18T05:25:44.270Z,14.94
2023-04-18T05:26:44.295Z,14.99
2023-04-18T05:27:44.331Z,15.00
2023-04-18T05:28:44.874Z,14.99
2023-04-18T05:29:44.442Z,14.93
2023-04-18T05:30:44.522Z,14.90
2023-04-18T05:31:44.528Z,14.92
2023-04-18T05:32:44.567Z,14.84
2023-04-18T05:33:44.677Z,14.83
2023-04-18T05:34:44.744Z,14.82
2023-04-18T05:35:44.659Z,14.78
2023-04-18T05:36:44.684Z,14.78
2023-04-18T05:37:44.691Z,14.78
2023-04-18T05:38:44.717Z,14.75
2023-04-18T05:39:44.727Z,14.73
2023-04-18T05:40:44.767Z,14.73
2023-04-18T05:41:44.821Z,14.73
2023-04-18T05:42:44.817Z,14.72
2023-04-18T05:43:54.188Z,14.68
2023-04-18T05:44:45.857Z,14.69
2023-04-18T05:45:44.820Z,14.72
2023-04-18T05:46:44.830Z,14.69
2023-04-18T05:47:44.836Z,14.69
2023-04-18T05:48:44.871Z,14.68
2023-04-18T05:49:44.830Z,14.71
2023-04-18T05:50:44.801Z,14.69
2023-04-18T05:51:44.782Z,14.69
2023-04-18T05:52:44.826Z,14.66
2023-04-18T05:53:44.789Z,14.68
2023-04-18T05:54:44.796Z,14.73
2023-04-18T05:55:44.903Z,14.71
2023-04-18T05:56:44.734Z,14.71
2023-04-18T05:57:44.738Z,14.75
2023-04-18T05:58:44.748Z,14.72
2023-04-18T05:59:44.833Z,14.73
2023-04-18T06:00:44.830Z,14.75
2023-04-18T06:01:44.857Z,14.75
2023-04-18T06:02:44.976Z,14.71
2023-04-18T06:03:45.536Z,14.73
2023-04-18T06:04:45.352Z,14.73
2023-04-18T06:05:45.151Z,14.72
2023-04-18T06:06:45.045Z,14.69
2023-04-18T06:07:45.068Z,14.72
2023-04-18T06:08:45.077Z,14.71
2023-04-18T06:09:45.108Z,14.69
2023-04-18T06:10:45.145Z,14.71
2023-04-18T06:11:45.307Z,14.72
2023-04-18T06:12:45.249Z,14.73
2023-04-18T06:13:45.389Z,14.72
2023-04-18T06:14:45.344Z,14.75
2023-04-18T06:15:45.434Z,14.75
2023-04-18T06:16:45.394Z,14.76
2023-04-18T06:17:45.438Z,14.75
2023-04-18T06:18:45.486Z,14.78
2023-04-18T06:19:45.550Z,14.76
2023-04-18T06:20:45.574Z,14.76
2023-04-18T06:21:45.588Z,14.76
2023-04-18T06:22:45.638Z,14.80
2023-04-18T06:23:45.665Z,14.82
2023-04-18T06:24:45.753Z,14.83
2023-04-18T06:25:45.791Z,14.83
2023-04-18T06:26:45.890Z,14.87
2023-04-18T06:27:45.927Z,14.87
2023-04-18T06:28:45.984Z,14.90
2023-04-18T06:29:46.043Z,14.90
2023-04-18T06:30:46.122Z,14.92
2023-04-18T06:31:46.247Z,14.94
2023-04-18T06:32:46.282Z,14.94
2023-04-18T06:33:46.403Z,14.94
2023-04-18T06:34:46.368Z,14.93
2023-04-18T06:35:46.425Z,14.96
2023-04-18T06:36:46.496Z,14.93
2023-04-18T06:37:46.563Z,14.96
2023-04-18T06:38:46.622Z,14.94
2023-04-18T06:39:46.690Z,14.94
2023-04-18T06:40:46.854Z,14.96
2023-04-18T06:41:46.836Z,14.99
2023-04-18T06:42:46.863Z,15.02
2023-04-18T06:44:02.196Z,15.02
2023-04-18T06:44:47.921Z,15.02
2023-04-18T06:45:47.515Z,15.02
2023-04-18T06:46:46.891Z,15.04
2023-04-18T06:47:46.885Z,15.07
2023-04-18T06:48:46.870Z,15.07
2023-04-18T06:49:46.895Z,15.09
2023-04-18T06:50:46.858Z,15.10
2023-04-18T06:51:46.851Z,15.13
2023-04-18T06:52:46.845Z,15.14
2023-04-18T06:53:46.853Z,15.15
2023-04-18T06:54:46.875Z,15.15
2023-04-18T06:55:46.886Z,15.17
2023-04-18T06:56:47.078Z,15.19
2023-04-18T06:57:46.979Z,15.17
2023-04-18T06:58:47.416Z,15.19
2023-04-18T06:59:47.101Z,15.21
2023-04-18T07:00:47.116Z,15.24
2023-04-18T07:01:47.084Z,15.27
2023-04-18T07:02:47.259Z,15.27
2023-04-18T07:03:47.673Z,15.30
2023-04-18T07:04:47.199Z,15.31
2023-04-18T07:05:47.129Z,15.34
2023-04-18T07:06:47.162Z,15.37
2023-04-18T07:07:47.165Z,15.38
2023-04-18T07:08:47.261Z,15.41
2023-04-18T07:09:47.215Z,15.41
2023-04-18T07:10:47.230Z,15.41
2023-04-18T07:11:47.235Z,15.47
2023-04-18T07:12:47.348Z,15.50
2023-04-18T07:13:47.235Z,15.35
2023-04-18T07:14:47.263Z,15.44
2023-04-18T07:15:47.320Z,15.48
2023-04-18T07:16:47.320Z,15.51
2023-04-18T07:17:47.308Z,15.51
2023-04-18T07:18:47.276Z,15.51
2023-04-18T07:19:47.269Z,15.51
2023-04-18T07:20:47.314Z,15.51
2023-04-18T07:21:47.325Z,15.51
2023-04-18T07:22:47.489Z,15.51
2023-04-18T07:23:47.513Z,15.54
2023-04-18T07:24:47.418Z,15.55
2023-04-18T07:25:47.931Z,15.58
2023-04-18T07:26:47.431Z,15.58
2023-04-18T07:27:47.400Z,15.64
2023-04-18T07:28:47.416Z,15.61
2023-04-18T07:29:47.469Z,15.64
2023-04-18T07:30:47.921Z,15.66
2023-04-18T07:31:47.418Z,15.69
2023-04-18T07:32:47.478Z,15.72
2023-04-18T07:33:47.459Z,15.71
2023-04-18T07:34:47.457Z,15.77
2023-04-18T07:35:47.892Z,15.78
2023-04-18T07:36:47.472Z,15.79
2023-04-18T07:37:47.473Z,15.85
2023-04-18T07:38:47.546Z,15.85
2023-04-18T07:39:47.560Z,15.85
2023-04-18T07:40:47.911Z,15.93
2023-04-18T07:41:47.650Z,15.96
2023-04-18T07:42:47.716Z,15.98
2023-04-18T07:43:47.771Z,16.08
2023-04-18T07:44:47.990Z,16.09
2023-04-18T07:45:47.908Z,16.02
2023-04-18T07:46:47.953Z,16.10
2023-04-18T07:47:47.986Z,16.16
2023-04-18T07:48:48.033Z,16.02
2023-04-18T07:49:48.412Z,16.09
2023-04-18T07:50:48.088Z,16.17
2023-04-18T07:51:48.158Z,16.10
2023-04-18T07:52:48.166Z,16.17
2023-04-18T07:53:48.196Z,16.24
2023-04-18T07:54:48.270Z,16.31
2023-04-18T07:55:48.282Z,16.08
2023-04-18T07:56:48.307Z,16.08
2023-04-18T07:57:48.322Z,16.13
2023-04-18T07:58:48.348Z,16.22
2023-04-18T07:59:48.396Z,16.27
2023-04-18T08:00:48.529Z,16.33
2023-04-18T08:01:48.432Z,16.40
2023-04-18T08:02:48.576Z,16.47
2023-04-18T08:03:48.546Z,16.49
2023-04-18T08:04:48.537Z,16.54
2023-04-18T08:05:48.536Z,16.54
2023-04-18T08:06:48.525Z,16.61
2023-04-18T08:07:48.555Z,16.60
2023-04-18T08:08:48.588Z,16.61
2023-04-18T08:09:48.626Z,16.66
2023-04-18T08:10:48.670Z,16.19
2023-04-18T08:11:48.640Z,16.39
2023-04-18T08:12:48.670Z,16.46
2023-04-18T08:13:48.678Z,16.47
2023-04-18T08:14:48.952Z,16.57
2023-04-18T08:15:48.735Z,16.63
2023-04-18T08:16:48.743Z,16.68
2023-04-18T08:17:48.715Z,16.71
2023-04-18T08:18:48.738Z,16.74
2023-04-18T08:19:48.922Z,16.77
2023-04-18T08:20:48.919Z,16.78
2023-04-18T08:21:48.732Z,16.82
2023-04-18T08:23:05.240Z,16.71
2023-04-18T08:23:49.724Z,16.71
2023-04-18T08:25:03.781Z,16.81
2023-04-18T08:25:49.723Z,16.90
2023-04-18T08:26:48.698Z,16.96
2023-04-18T08:27:48.710Z,16.91
2023-04-18T08:28:48.706Z,16.94
2023-04-18T08:29:48.669Z,16.94
2023-04-18T08:30:48.721Z,16.96
2023-04-18T08:31:48.731Z,16.92
2023-04-18T08:32:48.740Z,16.98
2023-04-18T08:33:48.744Z,16.96
2023-04-18T08:34:48.775Z,16.95
2023-04-18T08:35:48.881Z,17.05
2023-04-18T08:36:48.896Z,16.99
2023-04-18T08:37:48.970Z,17.01
2023-04-18T08:38:48.997Z,16.96
2023-04-18T08:39:49.034Z,17.04
2023-04-18T08:40:49.130Z,17.05
2023-04-18T08:41:49.186Z,17.14
2023-04-18T08:42:49.256Z,17.17
2023-04-18T08:43:49.283Z,17.09
2023-04-18T08:44:49.359Z,17.12
2023-04-18T08:45:49.403Z,17.11
2023-04-18T08:46:49.447Z,17.19
2023-04-18T08:47:49.543Z,17.21
2023-04-18T08:48:49.539Z,17.26
2023-04-18T08:49:49.610Z,17.28
2023-04-18T08:50:49.622Z,17.30
2023-04-18T08:51:49.656Z,17.30
2023-04-18T08:52:49.709Z,17.32
2023-04-18T08:53:49.728Z,17.36
2023-04-18T08:54:49.823Z,17.35
2023-04-18T08:55:49.823Z,16.95
2023-04-18T08:56:49.944Z,17.22
2023-04-18T08:57:49.918Z,17.08
2023-04-18T08:58:49.977Z,16.94
2023-04-18T08:59:51.272Z,17.12
2023-04-18T09:00:50.041Z,17.21
2023-04-18T09:01:50.093Z,17.30
2023-04-18T09:02:50.251Z,17.33
2023-04-18T09:03:50.136Z,17.33
2023-04-18T09:04:50.147Z,17.48
2023-04-18T09:05:50.153Z,17.48
2023-04-18T09:06:50.169Z,17.53
2023-04-18T09:07:50.210Z,17.54
2023-04-18T09:08:50.205Z,17.60
2023-04-18T09:09:50.258Z,17.57
2023-04-18T09:10:50.212Z,17.65
2023-04-18T09:11:50.414Z,17.69
2023-04-18T09:12:50.685Z,17.74
2023-04-18T09:13:50.273Z,17.76
2023-04-18T09:14:50.292Z,17.77
2023-04-18T09:15:50.300Z,17.76
2023-04-18T09:16:50.517Z,17.74
2023-04-18T09:17:50.384Z,17.84
2023-04-18T09:18:50.330Z,17.87
2023-04-18T09:19:50.343Z,17.90
2023-04-18T09:20:50.357Z,17.72
2023-04-18T09:21:50.433Z,17.80
2023-04-18T09:22:50.512Z,17.86
2023-04-18T09:23:50.429Z,17.93
2023-04-18T09:24:50.478Z,18.00
2023-04-18T09:25:50.969Z,18.01
2023-04-18T09:26:50.512Z,18.05
2023-04-18T09:27:50.502Z,18.11
2023-04-18T09:28:52.084Z,18.12
2023-04-18T09:29:50.475Z,18.15
2023-04-18T09:30:50.977Z,18.18
2023-04-18T09:31:50.977Z,18.18
2023-04-18T09:32:50.500Z,18.17
2023-04-18T09:33:50.500Z,18.17
2023-04-18T09:34:50.455Z,18.19
2023-04-18T09:35:50.447Z,18.27
2023-04-18T09:36:51.018Z,18.24
2023-04-18T09:37:50.464Z,18.23
2023-04-18T09:38:50.443Z,18.23
2023-04-18T09:39:50.453Z,18.18
2023-04-18T09:40:50.417Z,18.31
2023-04-18T09:41:50.438Z,18.35
2023-04-18T09:42:50.427Z,18.38
2023-04-18T09:43:50.426Z,18.42
2023-04-18T09:44:50.404Z,18.45
2023-04-18T09:45:50.446Z,18.47
2023-04-18T09:46:50.382Z,18.47
2023-04-18T09:47:50.421Z,18.51
2023-04-18T09:48:50.397Z,18.51
2023-04-18T09:49:50.404Z,18.59
2023-04-18T09:50:50.395Z,18.60
2023-04-18T09:51:50.461Z,18.63
2023-04-18T09:52:50.354Z,18.68
2023-04-18T09:53:50.374Z,18.66
2023-04-18T09:54:50.320Z,18.70
2023-04-18T09:55:50.354Z,18.73
2023-04-18T09:56:50.323Z,18.73
2023-04-18T09:57:50.341Z,18.75
2023-04-18T09:58:50.295Z,18.77
2023-04-18T09:59:50.303Z,18.80
2023-04-18T10:00:50.468Z,18.86
2023-04-18T10:01:50.330Z,18.59
2023-04-18T10:02:50.425Z,18.65
2023-04-18T10:03:50.366Z,18.75
2023-04-18T10:04:50.366Z,18.76
2023-04-18T10:05:50.353Z,18.79
2023-04-18T10:06:50.247Z,18.79
2023-04-18T10:07:50.245Z,18.83
2023-04-18T10:08:50.227Z,18.82
2023-04-18T10:09:50.231Z,18.77
2023-04-18T10:10:50.239Z,18.79
2023-04-18T10:11:50.230Z,18.77
2023-04-18T10:12:50.204Z,18.79
2023-04-18T10:13:50.257Z,18.83
2023-04-18T10:14:50.322Z,18.87
2023-04-18T10:15:50.413Z,18.89
2023-04-18T10:16:50.677Z,18.90
2023-04-18T10:18:03.524Z,18.83
2023-04-18T10:18:51.615Z,18.92
2023-04-18T10:19:50.497Z,18.95
2023-04-18T10:20:50.520Z,18.96
2023-04-18T10:21:50.947Z,18.99
2023-04-18T10:22:50.481Z,18.95
2023-04-18T10:23:50.504Z,18.99
2023-04-18T10:24:50.548Z,18.99
2023-04-18T10:25:50.514Z,19.07
2023-04-18T10:26:50.974Z,19.10
2023-04-18T10:27:50.441Z,19.13
2023-04-18T10:28:50.475Z,19.17
2023-04-18T10:29:50.429Z,19.21
2023-04-18T10:30:50.464Z,19.24
2023-04-18T10:31:50.546Z,19.28
2023-04-18T10:32:50.476Z,19.33
2023-04-18T10:34:03.195Z,19.13
2023-04-18T10:34:51.396Z,19.21
2023-04-18T10:35:50.397Z,19.26
2023-04-18T10:36:50.413Z,19.30
2023-04-18T10:37:50.368Z,19.24
2023-04-18T10:38:50.389Z,19.21
2023-04-18T10:39:50.367Z,19.31
2023-04-18T10:40:50.959Z,19.33
2023-04-18T10:41:51.175Z,19.38
2023-04-18T10:42:50.371Z,19.38
2023-04-18T10:43:50.339Z,19.41
2023-04-18T10:44:50.324Z,19.44
2023-04-18T10:45:50.332Z,19.44
2023-04-18T10:46:50.346Z,19.45
2023-04-18T10:47:50.321Z,19.48
2023-04-18T10:48:50.305Z,19.48
2023-04-18T10:49:50.319Z,19.28
2023-04-18T10:50:50.275Z,19.41
2023-04-18T10:51:50.293Z,19.42
2023-04-18T10:52:50.287Z,19.47
2023-04-18T10:53:50.270Z,19.51
2023-04-18T10:54:50.247Z,19.55
2023-04-18T10:55:50.253Z,19.54
2023-04-18T10:56:50.292Z,19.60
2023-04-18T10:57:50.236Z,19.60
2023-04-18T10:58:50.225Z,19.51
2023-04-18T10:59:50.242Z,19.57
2023-04-18T11:00:50.230Z,19.51
2023-04-18T11:01:50.231Z,19.00
2023-04-18T11:02:50.401Z,19.31
2023-04-18T11:03:50.239Z,19.33
2023-04-18T11:04:50.223Z,19.44
2023-04-18T11:05:50.225Z,19.50
2023-04-18T11:06:50.267Z,19.54
2023-04-18T11:07:50.264Z,19.58
2023-04-18T11:08:50.257Z,19.62
2023-04-18T11:09:50.325Z,19.65
2023-04-18T11:10:50.289Z,19.69
2023-04-18T11:11:50.332Z,19.69
2023-04-18T11:12:50.382Z,19.71
2023-04-18T11:13:50.420Z,19.65
2023-04-18T11:14:50.457Z,19.45
2023-04-18T11:15:50.444Z,19.38
2023-04-18T11:16:51.018Z,19.51
2023-04-18T11:17:50.539Z,19.39
2023-04-18T11:18:50.484Z,19.48
2023-04-18T11:19:50.465Z,19.50
2023-04-18T11:20:50.477Z,19.47
2023-04-18T11:21:50.489Z,19.51
2023-04-18T11:22:50.480Z,19.57
2023-04-18T11:23:50.512Z,19.62
2023-04-18T11:24:50.548Z,19.68
2023-04-18T11:25:50.567Z,19.68
2023-04-18T11:26:50.641Z,19.37
2023-04-18T11:27:50.712Z,19.27
2023-04-18T11:28:50.790Z,19.07
2023-04-18T11:29:50.823Z,19.11
2023-04-18T11:30:50.860Z,18.54
2023-04-18T11:31:50.932Z,18.62
2023-04-18T11:32:50.957Z,18.87
2023-04-18T11:33:51.017Z,18.92
2023-04-18T11:34:51.050Z,19.10
2023-04-18T11:35:51.086Z,19.24
2023-04-18T11:36:51.168Z,19.33
2023-04-18T11:37:51.248Z,19.42
2023-04-18T11:38:51.254Z,19.53
2023-04-18T11:39:51.302Z,19.61
2023-04-18T11:40:51.461Z,19.66
2023-04-18T11:41:51.396Z,19.64
2023-04-18T11:42:51.425Z,19.74
2023-04-18T11:43:51.440Z,19.75
2023-04-18T11:44:51.509Z,19.89
2023-04-18T11:45:51.548Z,19.96
2023-04-18T11:46:51.555Z,19.81
2023-04-18T11:47:51.547Z,19.97
2023-04-18T11:48:51.582Z,20.05
2023-04-18T11:49:53.073Z,20.06
2023-04-18T11:51:16.719Z,20.16
2023-04-18T11:52:16.703Z,19.93
2023-04-18T11:53:16.694Z,20.16
2023-04-18T11:54:16.710Z,20.20
2023-04-18T11:55:16.711Z,20.29
2023-04-18T11:56:16.666Z,20.33
2023-04-18T11:57:16.693Z,20.40
2023-04-18T11:58:16.652Z,20.44
2023-04-18T11:59:16.660Z,20.50
2023-04-18T12:00:16.651Z,20.51
2023-04-18T12:01:16.649Z,20.53
2023-04-18T12:02:17.256Z,20.25
2023-04-18T12:03:16.898Z,20.26
2023-04-18T12:04:16.856Z,20.29
2023-04-18T12:05:16.884Z,20.33
2023-04-18T12:06:16.656Z,20.33
2023-04-18T12:07:16.613Z,20.40
2023-04-18T12:08:16.599Z,20.37
2023-04-18T12:09:16.582Z,20.42
2023-04-18T12:10:16.581Z,20.22
2023-04-18T12:11:16.550Z,20.30
2023-04-18T12:12:16.553Z,20.33
2023-04-18T12:13:16.539Z,20.29
2023-04-18T12:14:16.531Z,20.23
2023-04-18T12:15:16.530Z,20.39
2023-04-18T12:16:16.558Z,20.44
2023-04-18T12:17:16.523Z,20.19
2023-04-18T12:18:16.527Z,20.37
2023-04-18T12:19:16.495Z,20.42
2023-04-18T12:20:16.499Z,20.54
2023-04-18T12:21:16.484Z,20.58
2023-04-18T12:22:16.924Z,20.63
2023-04-18T12:23:16.481Z,20.60
2023-04-18T12:24:16.724Z,20.67
2023-04-18T12:25:16.448Z,20.66
2023-04-18T12:26:16.467Z,20.68
2023-04-18T12:27:16.448Z,20.71
2023-04-18T12:28:16.440Z,20.66
2023-04-18T12:29:16.439Z,20.63
2023-04-18T12:30:16.424Z,20.64
2023-04-18T12:31:16.452Z,20.70
2023-04-18T12:32:16.438Z,20.74
2023-04-18T12:33:16.392Z,20.74
2023-04-18T12:34:16.399Z,20.80
2023-04-18T12:35:16.380Z,20.85
2023-04-18T12:36:16.369Z,20.85
2023-04-18T12:37:16.425Z,20.87
2023-04-18T12:38:16.373Z,20.85
2023-04-18T12:39:16.360Z,20.88
2023-04-18T12:40:16.347Z,20.87
2023-04-18T12:41:16.331Z,20.91
2023-04-18T12:42:16.330Z,20.91
2023-04-18T12:43:16.323Z,20.93
2023-04-18T12:44:16.374Z,20.83
2023-04-18T12:45:16.354Z,20.63
2023-04-18T12:46:16.343Z,20.34
2023-04-18T12:47:16.301Z,20.53
2023-04-18T12:48:16.298Z,20.58
2023-04-18T12:49:16.292Z,20.63
2023-04-18T12:50:16.367Z,20.62
2023-04-18T12:51:16.280Z,20.71
2023-04-18T12:52:16.258Z,20.78
2023-04-18T12:53:16.261Z,20.81